Groningen Airport Eelde

EHGG · Groningen, 荷兰

罗盘
风向 的 风向 180° Groningen Airport Eelde 5/23
风: 5 kt, 2 beaufort

3 kt

4 kt
改变
0 1.000 2.000 3.000 4.000 5.000
没有观察到明显的云
METAR EHLE 040025Z AUTO 18005KT 9999 NSC 11/11 Q1023

METAR Groningen Airport Eelde - EHGG/GRQ

Groningen Airport Eelde是Groningen,荷兰中的中型机场。 该机场有一条跑道: 5/23. 该领域的国际民航组织标志是EHGG 它的国际航空运输协会代码是GRQ.

这份报告是针对2022年10月4日 02:25, 当地时间在Lelystad Airport进行的。

机场观察

风向为180°,速度为5 kt。

可见度为10 km 或者更多。

有没有观察到明显的云。 没有观察到天花板。

温度和风寒是11 °C。 露点为11 °C,相对湿度为100%。 海平面上的气压为1023 hPa (QNH)。

白天

今天,太阳从07:40升起,在19:04降落。 这适用于Groningen Airport Eelde,世界夏令时可能有所不同。 当地时间与世界标准时间之间的时差为+2 小时。 夏令时目前正在进行中。

公司介绍

在这个机场,你可以找到飞行学校。 这个机场上的公司有Noord Nederlandse Aeroclub- Eelde, Skyline Aviation B.V., Martinair Flight Academy, KLM Luchtvaartschool 和 EFTC。

体会

到Vliegles.nl去找飞行课程,跳伞和其他飞行体验。 浏览页面,了解Groningen Airport Eelde附近所有可用的活动。 你也可以使用搜索功能来寻找你所在地附近的特定飞行课程、跳伞或其他飞行体验。

跑道

Id 标题 侧风 逆风 侧风 %
5/23 052°-232° 4 kt 3 kt 79 %

逆风成分最大的方向会被突出显示,并用于横风计算。 这并不一定意味着这个方向在使用。

乌云

- NSC 没有观察到明显的云

温度 & 天气

温度 11 °C
露点 11 °C
相对湿度 100%
Kp-index 1 (0-9)

白天

日出
07:44 (5h 06m)
中午
13:26
日落
19:08

小工具

你想在你的网站上有一个关于Groningen Airport Eelde的当前航空天气(METAR)的小部件吗?

</> 显示HTML代码

我们和第三方通过cookies跟踪您在我们网站上的上网行为。如果您继续,我们认为您同意我们的cookie政策。 了解更多